createdAt,value
2019-02-22T00:01:18.140Z,19.80
2019-02-22T00:03:46.843Z,19.75
2019-02-22T00:06:15.479Z,21.17
2019-02-22T00:08:44.505Z,21.23
2019-02-22T00:11:13.147Z,19.50
2019-02-22T00:13:42.982Z,18.80
2019-02-22T00:16:11.731Z,19.47
2019-02-22T00:18:40.359Z,19.67
2019-02-22T00:21:08.988Z,19.82
2019-02-22T00:23:37.643Z,19.03
2019-02-22T00:26:06.275Z,21.20
2019-02-22T00:28:34.896Z,18.82
2019-02-22T00:31:03.640Z,20.57
2019-02-22T00:33:32.252Z,20.48
2019-02-22T00:36:00.948Z,19.83
2019-02-22T00:38:29.536Z,21.07
2019-02-22T00:40:58.178Z,20.23
2019-02-22T00:43:26.842Z,22.00
2019-02-22T00:45:55.459Z,21.87
2019-02-22T00:48:24.101Z,21.10
2019-02-22T00:50:52.749Z,23.62
2019-02-22T00:53:21.390Z,20.95
2019-02-22T00:55:50.111Z,23.10
2019-02-22T00:58:18.747Z,24.50
2019-02-22T01:00:47.922Z,25.12
2019-02-22T01:03:16.545Z,27.57
2019-02-22T01:05:45.179Z,26.33
2019-02-22T01:08:13.829Z,28.47
2019-02-22T01:10:42.860Z,26.23
2019-02-22T01:13:11.841Z,27.70
2019-02-22T01:15:41.567Z,28.17
2019-02-22T01:18:10.527Z,27.45
2019-02-22T01:20:39.180Z,28.83
2019-02-22T01:23:07.823Z,28.75
2019-02-22T01:25:36.463Z,15.55
2019-02-22T01:28:05.132Z,28.77
2019-02-22T01:30:33.842Z,21.65
2019-02-22T01:33:02.476Z,30.17
2019-02-22T01:35:31.127Z,30.40
2019-02-22T01:38:00.251Z,30.52
2019-02-22T01:40:28.928Z,30.88
2019-02-22T01:42:58.099Z,31.73
2019-02-22T01:45:26.727Z,32.53
2019-02-22T01:47:55.389Z,32.40
2019-02-22T01:50:24.280Z,31.23
2019-02-22T01:52:52.924Z,29.52
2019-02-22T01:55:21.585Z,30.52
2019-02-22T01:57:50.213Z,28.93
2019-02-22T02:00:18.940Z,29.60
2019-02-22T02:02:47.632Z,28.77
2019-02-22T02:05:16.254Z,30.57
2019-02-22T02:07:44.902Z,32.93
2019-02-22T02:10:13.547Z,31.82
2019-02-22T02:12:42.171Z,25.57
2019-02-22T02:17:53.055Z,28.00
2019-02-22T02:20:21.950Z,30.87
2019-02-22T02:22:51.023Z,27.87
2019-02-22T02:25:19.667Z,29.10
2019-02-22T02:27:48.283Z,26.10
2019-02-22T02:30:17.648Z,25.15
2019-02-22T02:32:46.300Z,29.52
2019-02-22T02:35:14.953Z,27.30
2019-02-22T02:37:43.680Z,27.17
2019-02-22T02:40:12.307Z,27.25
2019-02-22T02:42:40.932Z,26.53
2019-02-22T02:45:10.123Z,29.30
2019-02-22T02:47:38.750Z,26.20
2019-02-22T02:50:07.487Z,28.67
2019-02-22T02:52:36.136Z,28.25
2019-02-22T02:55:06.223Z,25.23
2019-02-22T02:57:34.866Z,25.70
2019-02-22T03:00:03.866Z,26.40
2019-02-22T03:02:32.940Z,24.13
2019-02-22T03:05:01.680Z,26.10
2019-02-22T03:07:42.165Z,21.60
2019-02-22T03:10:10.811Z,21.95
2019-02-22T03:12:39.541Z,24.70
2019-02-22T03:15:08.859Z,23.95
2019-02-22T03:17:37.669Z,23.27
2019-02-22T03:20:06.312Z,19.67
2019-02-22T03:22:34.987Z,21.52
2019-02-22T03:25:03.623Z,23.70
2019-02-22T03:27:32.255Z,25.87
2019-02-22T03:30:00.895Z,24.27
2019-02-22T03:32:29.600Z,25.35
2019-02-22T03:34:58.311Z,22.77
2019-02-22T03:37:26.947Z,25.12
2019-02-22T03:39:55.585Z,24.52
2019-02-22T03:42:24.229Z,23.30
2019-02-22T03:44:52.907Z,25.10
2019-02-22T03:47:21.551Z,25.00
2019-02-22T03:49:50.900Z,25.30
2019-02-22T03:52:38.643Z,21.05
2019-02-22T03:55:07.399Z,23.17
2019-02-22T03:57:36.035Z,24.57
2019-02-22T04:00:04.794Z,23.50
2019-02-22T04:02:35.621Z,21.07
2019-02-22T04:05:04.616Z,22.37
2019-02-22T04:07:33.316Z,21.03
2019-02-22T04:10:01.941Z,23.47
2019-02-22T04:12:31.748Z,22.27
2019-02-22T04:15:00.487Z,22.15
2019-02-22T04:17:29.616Z,19.30
2019-02-22T04:19:59.027Z,19.92
2019-02-22T04:22:27.704Z,21.03
2019-02-22T04:24:56.330Z,21.50
2019-02-22T04:27:25.136Z,18.17
2019-02-22T04:29:53.794Z,17.77
2019-02-22T04:32:22.417Z,18.30
2019-02-22T04:34:51.049Z,23.15
2019-02-22T04:37:19.716Z,18.07
2019-02-22T04:39:48.487Z,21.67
2019-02-22T04:42:17.147Z,21.00
2019-02-22T04:44:46.154Z,22.03
2019-02-22T04:47:14.790Z,23.02
2019-02-22T04:49:43.463Z,18.37
2019-02-22T04:52:12.090Z,20.52
2019-02-22T04:54:40.735Z,17.15
2019-02-22T04:57:09.770Z,19.87
2019-02-22T04:59:38.393Z,20.65
2019-02-22T05:02:07.036Z,21.23
2019-02-22T05:04:35.686Z,19.05
2019-02-22T05:07:04.283Z,19.90
2019-02-22T05:09:32.919Z,21.33
2019-02-22T05:12:10.495Z,9.47
2019-02-22T05:14:31.778Z,23.35
2019-02-22T05:17:00.473Z,22.02
2019-02-22T05:19:29.076Z,22.17
2019-02-22T05:21:58.675Z,21.73
2019-02-22T05:24:27.332Z,23.30
2019-02-22T05:26:55.951Z,20.68
2019-02-22T05:29:24.660Z,23.95
2019-02-22T05:31:53.367Z,19.07
2019-02-22T05:34:22.039Z,19.73
2019-02-22T05:36:50.674Z,20.10
2019-02-22T05:39:19.689Z,21.42
2019-02-22T05:41:48.419Z,17.48
2019-02-22T05:44:17.051Z,17.90
2019-02-22T05:46:45.675Z,19.73
2019-02-22T05:49:14.334Z,22.90
2019-02-22T05:51:42.955Z,21.63
2019-02-22T05:54:11.612Z,21.83
2019-02-22T05:56:40.300Z,21.27
2019-02-22T05:59:09.371Z,21.20
2019-02-22T06:01:38.068Z,20.45
2019-02-22T06:04:06.713Z,18.85
2019-02-22T06:06:35.336Z,20.68
2019-02-22T06:09:04.864Z,18.17
2019-02-22T06:11:33.686Z,16.62
2019-02-22T06:14:02.418Z,17.10
2019-02-22T06:16:31.039Z,16.40
2019-02-22T06:18:59.795Z,16.73
2019-02-22T06:21:28.955Z,20.37
2019-02-22T06:23:57.599Z,18.65
2019-02-22T06:26:26.238Z,21.00
2019-02-22T06:28:54.906Z,9.98
2019-02-22T06:31:24.484Z,10.97
2019-02-22T06:33:53.133Z,9.98
2019-02-22T06:36:21.841Z,10.50
2019-02-22T06:38:50.496Z,10.78
2019-02-22T06:41:19.736Z,11.38
2019-02-22T06:43:48.372Z,10.25
2019-02-22T06:46:17.027Z,12.35
2019-02-22T06:48:45.651Z,12.15
2019-02-22T06:51:15.248Z,10.63
2019-02-22T06:53:43.931Z,11.93
2019-02-22T06:56:12.657Z,12.55
2019-02-22T06:58:41.368Z,13.00
2019-02-22T07:01:10.022Z,12.15
2019-02-22T07:03:38.697Z,13.00
2019-02-22T07:06:07.323Z,11.80
2019-02-22T07:08:35.971Z,12.23
2019-02-22T07:11:12.832Z,12.80
2019-02-22T07:13:41.549Z,12.35
2019-02-22T07:16:10.180Z,11.53
2019-02-22T07:18:38.940Z,13.35
2019-02-22T07:21:07.718Z,13.33
2019-02-22T07:23:36.357Z,13.15
2019-02-22T07:26:05.008Z,13.52
2019-02-22T07:28:33.750Z,12.88
2019-02-22T07:31:02.371Z,12.23
2019-02-22T07:33:31.035Z,12.80
2019-02-22T07:35:59.677Z,14.47
2019-02-22T07:38:28.303Z,14.15
2019-02-22T07:40:57.114Z,13.43
2019-02-22T07:43:26.787Z,12.45
2019-02-22T07:45:55.423Z,12.58
2019-02-22T07:48:24.067Z,13.25
2019-02-22T07:50:57.939Z,13.38
2019-02-22T07:53:22.948Z,12.93
2019-02-22T07:55:51.675Z,13.33
2019-02-22T07:58:20.311Z,14.18
2019-02-22T08:00:48.940Z,13.38
2019-02-22T08:03:17.600Z,13.80
2019-02-22T08:05:46.339Z,14.15
2019-02-22T08:08:14.960Z,14.00
2019-02-22T08:10:43.619Z,13.17
2019-02-22T08:13:19.829Z,12.25
2019-02-22T08:15:42.488Z,14.20
2019-02-22T08:18:11.259Z,13.22
2019-02-22T08:20:39.971Z,14.40
2019-02-22T08:23:08.616Z,13.15
2019-02-22T08:25:37.255Z,13.72
2019-02-22T08:28:05.962Z,19.13
2019-02-22T08:30:34.676Z,22.05
2019-02-22T08:33:03.302Z,21.57
2019-02-22T08:35:32.580Z,21.42
2019-02-22T08:38:01.204Z,22.15
2019-02-22T08:40:29.902Z,20.50
2019-02-22T08:42:58.623Z,21.43
2019-02-22T08:45:27.243Z,22.70
2019-02-22T08:47:55.962Z,19.80
2019-02-22T08:50:25.682Z,21.87
2019-02-22T08:52:54.316Z,20.17
2019-02-22T08:55:22.955Z,22.07
2019-02-22T08:57:51.807Z,23.60
2019-02-22T09:00:20.503Z,21.05
2019-02-22T09:02:49.225Z,21.13
2019-02-22T09:05:17.875Z,23.90
2019-02-22T09:07:46.577Z,24.37
2019-02-22T09:10:15.216Z,20.80
2019-02-22T09:12:43.940Z,26.97
2019-02-22T09:15:12.643Z,22.48
2019-02-22T09:17:41.361Z,23.77
2019-02-22T09:20:10.079Z,22.00
2019-02-22T09:22:38.787Z,23.32
2019-02-22T09:25:07.840Z,23.22
2019-02-22T09:27:36.489Z,24.27
2019-02-22T09:30:05.276Z,25.48
2019-02-22T09:32:33.916Z,24.90
2019-02-22T09:35:02.552Z,24.90
2019-02-22T09:37:31.199Z,23.76
2019-02-22T09:39:59.823Z,26.47
2019-02-22T09:42:28.447Z,24.83
2019-02-22T09:44:57.104Z,25.17
2019-02-22T09:47:25.819Z,19.73
2019-02-22T09:49:54.534Z,21.82
2019-02-22T09:52:23.163Z,24.50
2019-02-22T09:54:51.792Z,24.75
2019-02-22T09:57:20.478Z,23.98
2019-02-22T09:59:49.127Z,20.02
2019-02-22T10:02:17.759Z,26.57
2019-02-22T10:04:54.619Z,25.90
2019-02-22T10:07:16.663Z,25.63
2019-02-22T10:09:45.304Z,26.10
2019-02-22T10:12:13.970Z,25.83
2019-02-22T10:14:42.607Z,25.12
2019-02-22T10:17:11.239Z,23.70
2019-02-22T10:19:39.966Z,26.12
2019-02-22T10:22:08.597Z,25.13
2019-02-22T10:24:38.488Z,16.87
2019-02-22T10:27:08.220Z,23.90
2019-02-22T10:29:36.856Z,24.65
2019-02-22T10:32:05.567Z,23.98
2019-02-22T10:34:35.310Z,26.30
2019-02-22T10:37:03.941Z,22.65
2019-02-22T10:39:32.647Z,21.62
2019-02-22T10:42:01.307Z,24.95
2019-02-22T10:44:29.955Z,20.75
2019-02-22T10:46:58.650Z,19.80
2019-02-22T10:49:27.775Z,24.43
2019-02-22T10:51:56.396Z,25.68
2019-02-22T10:54:25.401Z,22.80
2019-02-22T10:56:54.088Z,26.55
2019-02-22T10:59:22.719Z,25.40
2019-02-22T11:01:51.351Z,19.32
2019-02-22T11:04:20.021Z,19.42
2019-02-22T11:06:48.647Z,24.95
2019-02-22T11:09:17.439Z,26.07
2019-02-22T11:11:46.103Z,26.00
2019-02-22T11:14:14.731Z,23.87
2019-02-22T11:16:43.358Z,26.42
2019-02-22T11:19:12.011Z,24.18
2019-02-22T11:21:40.655Z,24.77
2019-02-22T11:24:09.280Z,25.93
2019-02-22T11:26:37.929Z,26.55
2019-02-22T11:29:06.551Z,27.40
2019-02-22T11:31:35.175Z,25.63
2019-02-22T11:34:03.819Z,23.70
2019-02-22T11:36:32.483Z,21.37
2019-02-22T11:39:01.243Z,25.80
2019-02-22T11:41:31.488Z,23.87
2019-02-22T11:44:00.137Z,22.80
2019-02-22T11:46:28.783Z,24.43
2019-02-22T11:48:57.459Z,23.37
2019-02-22T11:51:26.124Z,25.30
2019-02-22T11:53:55.823Z,22.75
2019-02-22T11:56:24.448Z,24.60
2019-02-22T11:58:53.119Z,23.62
2019-02-22T12:01:21.747Z,22.30
2019-02-22T12:03:50.387Z,23.77
2019-02-22T12:06:19.131Z,21.30
2019-02-22T12:08:47.951Z,20.32
2019-02-22T12:11:16.921Z,20.52
2019-02-22T12:13:45.579Z,24.57
2019-02-22T12:16:14.213Z,17.70
2019-02-22T12:18:42.921Z,20.23
2019-02-22T12:21:11.834Z,20.43
2019-02-22T12:23:40.488Z,20.75
2019-02-22T12:26:09.115Z,24.80
2019-02-22T12:28:37.753Z,24.80
2019-02-22T12:31:06.403Z,18.70
2019-02-22T12:33:35.031Z,20.03
2019-02-22T12:36:03.665Z,21.45
2019-02-22T12:38:32.515Z,19.42
2019-02-22T12:41:01.190Z,21.52
2019-02-22T12:43:30.975Z,20.80
2019-02-22T12:45:59.611Z,19.20
2019-02-22T12:48:28.235Z,19.73
2019-02-22T12:50:57.183Z,17.52
2019-02-22T12:53:25.814Z,23.98
2019-02-22T12:55:54.435Z,20.73
2019-02-22T12:58:23.090Z,13.18
2019-02-22T13:00:51.711Z,18.37
2019-02-22T13:03:20.380Z,20.20
2019-02-22T13:05:49.018Z,19.45
2019-02-22T13:08:18.710Z,21.70
2019-02-22T13:10:47.359Z,21.27
2019-02-22T13:13:16.344Z,21.00
2019-02-22T13:15:44.971Z,22.33
2019-02-22T13:18:13.603Z,22.13
2019-02-22T13:20:42.423Z,18.10
2019-02-22T13:23:11.050Z,14.73
2019-02-22T13:25:39.751Z,18.80
2019-02-22T13:28:08.399Z,17.85
2019-02-22T13:30:37.131Z,17.77
2019-02-22T13:33:05.772Z,18.58
2019-02-22T13:35:34.835Z,19.40
2019-02-22T13:38:03.444Z,19.87
2019-02-22T13:40:32.095Z,15.03
2019-02-22T13:43:00.724Z,16.93
2019-02-22T13:45:29.384Z,16.57
2019-02-22T13:47:58.034Z,13.38
2019-02-22T13:50:26.669Z,18.80
2019-02-22T13:52:55.315Z,14.53
2019-02-22T13:55:24.697Z,16.02
2019-02-22T13:57:53.319Z,15.20
2019-02-22T14:00:22.020Z,13.93
2019-02-22T14:02:50.679Z,14.05
2019-02-22T14:05:19.347Z,14.58
2019-02-22T14:07:54.127Z,12.93
2019-02-22T14:10:22.804Z,11.70
2019-02-22T14:12:51.591Z,11.77
2019-02-22T14:15:20.248Z,10.97
2019-02-22T14:17:48.898Z,12.67
2019-02-22T14:20:17.539Z,14.23
2019-02-22T14:22:46.660Z,16.05
2019-02-22T14:25:15.403Z,15.27
2019-02-22T14:27:44.067Z,12.97
2019-02-22T14:30:12.779Z,11.40
2019-02-22T14:32:41.404Z,13.60
2019-02-22T14:35:10.099Z,14.73
2019-02-22T14:37:40.562Z,10.28
2019-02-22T14:40:09.664Z,11.90
2019-02-22T14:42:39.367Z,12.37
2019-02-22T14:45:08.660Z,12.53
2019-02-22T14:47:37.351Z,12.15
2019-02-22T14:50:07.371Z,11.13
2019-02-22T14:52:36.056Z,10.53
2019-02-22T14:55:04.951Z,12.57
2019-02-22T14:57:33.575Z,12.58
2019-02-22T15:00:02.228Z,9.03
2019-02-22T15:02:32.045Z,6.23
2019-02-22T15:05:00.759Z,8.43
2019-02-22T15:07:29.411Z,12.33
2019-02-22T15:09:58.974Z,14.80
2019-02-22T15:12:28.411Z,14.93
2019-02-22T15:14:57.079Z,19.10
2019-02-22T15:17:32.022Z,19.23
2019-02-22T15:20:00.849Z,17.98
2019-02-22T15:22:29.555Z,16.77
2019-02-22T15:24:58.312Z,18.57
2019-02-22T15:27:26.967Z,12.87
2019-02-22T15:29:55.594Z,16.40
2019-02-22T15:32:24.218Z,15.78
2019-02-22T15:34:52.879Z,18.10
2019-02-22T15:37:21.502Z,16.05
2019-02-22T15:39:50.143Z,15.65
2019-02-22T15:42:18.900Z,14.03
2019-02-22T15:44:47.533Z,14.25
2019-02-22T15:47:16.341Z,14.47
2019-02-22T15:49:44.995Z,10.93
2019-02-22T15:52:13.635Z,13.80
2019-02-22T15:54:42.339Z,12.80
2019-02-22T15:57:11.955Z,9.43
2019-02-22T15:59:40.584Z,11.10
2019-02-22T16:02:09.326Z,11.78
2019-02-22T16:04:45.391Z,12.20
2019-02-22T16:07:13.985Z,8.93
2019-02-22T16:09:42.660Z,10.00
2019-02-22T16:12:11.283Z,9.05
2019-02-22T16:14:40.484Z,11.08
2019-02-22T16:17:10.086Z,9.08
2019-02-22T16:19:38.715Z,12.85
2019-02-22T16:22:07.341Z,14.00
2019-02-22T16:24:37.056Z,13.90
2019-02-22T16:27:05.693Z,13.83
2019-02-22T16:29:34.323Z,15.10
2019-02-22T16:32:05.592Z,13.05
2019-02-22T16:34:43.155Z,12.43
2019-02-22T16:37:04.479Z,16.43
2019-02-22T16:39:33.131Z,17.23
2019-02-22T16:42:01.752Z,18.15
2019-02-22T16:44:30.383Z,16.30
2019-02-22T16:46:59.057Z,10.43
2019-02-22T16:49:28.751Z,12.33
2019-02-22T16:51:58.447Z,12.27
2019-02-22T16:54:27.127Z,12.20
2019-02-22T16:56:55.848Z,11.57
2019-02-22T16:59:24.498Z,10.33
2019-02-22T17:01:53.251Z,11.90
2019-02-22T17:04:22.307Z,10.80
2019-02-22T17:06:50.943Z,10.40
2019-02-22T17:09:19.576Z,9.63
2019-02-22T17:11:48.279Z,9.70
2019-02-22T17:14:16.915Z,10.70
2019-02-22T17:16:46.222Z,11.20
2019-02-22T17:19:14.895Z,10.18
2019-02-22T17:21:43.647Z,8.35
2019-02-22T17:24:13.253Z,9.65
2019-02-22T17:26:41.880Z,8.43
2019-02-22T17:29:11.247Z,8.50
2019-02-22T17:31:39.867Z,9.50
2019-02-22T17:34:08.679Z,9.63
2019-02-22T17:36:37.321Z,8.63
2019-02-22T17:39:07.183Z,7.37
2019-02-22T17:41:37.603Z,8.93
2019-02-22T17:44:06.251Z,8.70
2019-02-22T17:46:34.887Z,6.80
2019-02-22T17:49:03.527Z,9.33
2019-02-22T17:51:32.290Z,8.90
2019-02-22T17:54:00.930Z,8.07
2019-02-22T17:56:29.559Z,6.87
2019-02-22T17:58:58.215Z,5.83
2019-02-22T18:01:26.912Z,8.27
2019-02-22T18:03:55.540Z,8.33
2019-02-22T18:06:24.186Z,10.23
2019-02-22T18:08:52.883Z,9.13
2019-02-22T18:11:21.831Z,7.20
2019-02-22T18:13:50.543Z,8.63
2019-02-22T18:16:19.247Z,9.47
2019-02-22T18:18:48.079Z,9.73
2019-02-22T18:21:16.700Z,8.57
2019-02-22T18:23:46.009Z,10.13
2019-02-22T18:26:14.655Z,11.12
2019-02-22T18:28:43.467Z,9.78
2019-02-22T18:31:12.147Z,8.78
2019-02-22T18:33:40.839Z,12.90
2019-02-22T18:36:09.459Z,8.87
2019-02-22T18:38:38.100Z,11.43
2019-02-22T18:41:06.827Z,12.13
2019-02-22T18:43:35.615Z,12.23
2019-02-22T18:46:04.983Z,8.28
2019-02-22T18:48:33.624Z,12.65
2019-02-22T18:51:02.283Z,12.03
2019-02-22T18:53:30.906Z,13.40
2019-02-22T18:55:59.539Z,12.63
2019-02-22T18:58:28.268Z,12.30
2019-02-22T19:00:56.987Z,12.03
2019-02-22T19:03:25.679Z,13.30
2019-02-22T19:05:54.319Z,14.33
2019-02-22T19:08:32.147Z,11.90
2019-02-22T19:10:53.275Z,13.07
2019-02-22T19:13:21.921Z,16.33
2019-02-22T19:15:50.575Z,13.78
2019-02-22T19:18:19.211Z,11.73
2019-02-22T19:20:48.011Z,15.77
2019-02-22T19:23:16.687Z,16.20
2019-02-22T19:25:45.608Z,13.65
2019-02-22T19:28:14.235Z,14.95
2019-02-22T19:30:42.900Z,13.98
2019-02-22T19:33:12.214Z,16.50
2019-02-22T19:35:40.847Z,15.65
2019-02-22T19:38:09.674Z,16.03
2019-02-22T19:40:38.307Z,17.70
2019-02-22T19:43:06.945Z,17.20
2019-02-22T19:45:35.612Z,18.37
2019-02-22T19:48:04.245Z,17.73
2019-02-22T19:50:41.114Z,17.07
2019-02-22T19:53:03.166Z,18.32
2019-02-22T19:55:31.800Z,16.43
2019-02-22T19:58:00.422Z,17.50
2019-02-22T20:00:29.099Z,17.82
2019-02-22T20:02:57.721Z,18.27
2019-02-22T20:05:26.417Z,17.97
2019-02-22T20:07:55.123Z,17.80
2019-02-22T20:10:24.181Z,18.07
2019-02-22T20:12:52.880Z,16.65
2019-02-22T20:15:22.793Z,18.48
2019-02-22T20:17:54.636Z,18.40
2019-02-22T20:20:21.721Z,18.37
2019-02-22T20:22:50.415Z,17.85
2019-02-22T20:25:19.059Z,19.52
2019-02-22T20:27:47.791Z,18.75
2019-02-22T20:30:16.639Z,20.93
2019-02-22T20:32:45.331Z,20.20
2019-02-22T20:35:14.963Z,19.30
2019-02-22T20:37:51.755Z,18.73
2019-02-22T20:40:15.016Z,21.37
2019-02-22T20:42:43.729Z,19.35
2019-02-22T20:45:12.362Z,17.13
2019-02-22T20:47:41.093Z,19.07
2019-02-22T20:50:10.027Z,19.98
2019-02-22T20:52:38.747Z,19.37
2019-02-22T20:55:08.360Z,21.50
2019-02-22T20:57:36.987Z,20.60
2019-02-22T21:00:06.532Z,21.20
2019-02-22T21:02:35.505Z,21.50
2019-02-22T21:05:04.240Z,21.73
2019-02-22T21:07:32.869Z,18.57
2019-02-22T21:10:01.524Z,19.35
2019-02-22T21:12:30.715Z,20.00
2019-02-22T21:15:00.427Z,21.73
2019-02-22T21:17:29.083Z,19.00
2019-02-22T21:19:57.714Z,19.97
2019-02-22T21:22:26.356Z,19.00
2019-02-22T21:24:55.039Z,19.43
2019-02-22T21:27:23.679Z,19.92
2019-02-22T21:29:52.339Z,22.55
2019-02-22T21:32:20.963Z,20.53
2019-02-22T21:34:49.587Z,13.73
2019-02-22T21:37:18.244Z,21.73
2019-02-22T21:39:46.908Z,21.00
2019-02-22T21:42:20.091Z,9.03
2019-02-22T21:44:45.855Z,19.80
2019-02-22T21:47:14.507Z,18.32
2019-02-22T21:49:43.130Z,20.02
2019-02-22T21:52:11.759Z,19.62
2019-02-22T21:54:40.414Z,20.87
2019-02-22T21:57:09.123Z,19.25
2019-02-22T21:59:37.752Z,19.23
2019-02-22T22:02:06.406Z,18.72
2019-02-22T22:04:35.050Z,22.87
2019-02-22T22:07:03.678Z,20.82
2019-02-22T22:09:32.329Z,18.17
2019-02-22T22:12:00.945Z,16.85
2019-02-22T22:14:29.582Z,8.97
2019-02-22T22:16:58.215Z,19.93
2019-02-22T22:19:26.967Z,17.75
2019-02-22T22:21:55.603Z,17.70
2019-02-22T22:24:24.231Z,12.45
2019-02-22T22:26:52.891Z,20.15
2019-02-22T22:29:21.740Z,19.77
2019-02-22T22:31:50.383Z,15.88
2019-02-22T22:34:19.163Z,16.12
2019-02-22T22:36:47.798Z,19.70
2019-02-22T22:39:16.427Z,17.42
2019-02-22T22:41:45.062Z,14.87
2019-02-22T22:44:13.691Z,17.43
2019-02-22T22:46:42.396Z,17.10
2019-02-22T22:49:11.127Z,17.23
2019-02-22T22:51:40.035Z,17.95
2019-02-22T22:54:08.696Z,17.63
2019-02-22T22:56:37.320Z,18.70
2019-02-22T22:59:06.023Z,16.13
2019-02-22T23:01:35.815Z,17.23
2019-02-22T23:04:06.155Z,17.95
2019-02-22T23:06:34.779Z,16.53
2019-02-22T23:09:05.895Z,16.10
2019-02-22T23:11:36.156Z,17.65
2019-02-22T23:14:05.643Z,12.50
2019-02-22T23:16:34.351Z,17.75
2019-02-22T23:19:03.259Z,17.37
2019-02-22T23:21:31.920Z,14.93
2019-02-22T23:24:00.560Z,13.35
2019-02-22T23:26:29.272Z,14.78
2019-02-22T23:28:58.315Z,13.22
2019-02-22T23:31:27.027Z,12.53
2019-02-22T23:33:55.663Z,10.93
2019-02-22T23:36:24.679Z,13.90
2019-02-22T23:38:53.332Z,15.03
2019-02-22T23:41:22.651Z,12.63
2019-02-22T23:43:51.363Z,11.37
2019-02-22T23:46:20.008Z,11.85
2019-02-22T23:48:48.631Z,13.70
2019-02-22T23:51:17.287Z,14.38
2019-02-22T23:53:46.191Z,14.98
2019-02-22T23:56:14.818Z,15.48
2019-02-22T23:58:43.771Z,17.25
